»·PEaware :: AAL6295 KLAS-KPHX

AAL6295 :: KLAS-KPHX

FLIGHT INFORMATION

Flight Status: Arrived
Operator:
American Airlines
More flights by this operator :: More flights under this callsign
Pilot: Antonio A. (14008)
Aircraft: CANADAIR CL-600 CRJ-700
(CRJ7)
More flights by this aircraft type
Origin: KLAS McCarran Intl
United States
Destination: KPHX Phoenix Sky Harbor Intl
United States
More flights between these airports :: More routes between these airports
Route: +PRFUM4 PRFUM WOTRO BRUSR1
File this flight plan on PilotEdge
Remarks:
Altitude:
(Current/Filed)
250ft
Speed:
(Current/Filed)
330kts
Departed: 20-Sep-17 09:59 AM
Arrived: 20-Sep-17 10:47 AM
Distance/Time
Traveled:
222nm/0:48
Distance/Time
To Go:
Arrived

Flight Plot

Page will automatically refresh every two minutes.

Flight plan parsing failed; only flown route is shown


Map Options




Map Legend


Flown Route
Filed Route
Departure Airport
Arrival Airport
Navaid (VOR, NDB)
Fix

Horizontal Profiles

Position Reports

Time Latitude Longitude Heading Altitude Ground
Speed
20-Sep-17 09:36 36.079859 -115.145918 323 2188ft 0kts
20-Sep-17 09:37 36.079859 -115.145918 323 2188ft 0kts
20-Sep-17 09:38 36.079859 -115.145918 323 2188ft 0kts
20-Sep-17 09:39 36.079859 -115.145918 323 2188ft 0kts
20-Sep-17 09:40 36.079859 -115.145918 323 2188ft 0kts
20-Sep-17 09:41 36.079859 -115.145918 323 2188ft 0kts
20-Sep-17 09:42 36.079859 -115.145918 323 2188ft 0kts
20-Sep-17 09:43 36.079859 -115.145918 323 2188ft 0kts
20-Sep-17 09:44 36.079859 -115.145918 323 2188ft 0kts
20-Sep-17 09:45 36.079859 -115.145918 323 2188ft 0kts
20-Sep-17 09:46 36.079859 -115.145918 323 2188ft 0kts
20-Sep-17 09:47 36.079859 -115.145918 323 2188ft 0kts
20-Sep-17 09:48 36.079494 -115.145587 323 2188ft 2kts
20-Sep-17 09:49 36.079255 -115.145372 323 2188ft 0kts
20-Sep-17 09:50 36.079257 -115.145374 323 2188ft 0kts
20-Sep-17 09:51 36.079260 -115.145376 323 2188ft 0kts
20-Sep-17 09:52 36.079262 -115.145378 323 2188ft 0kts
20-Sep-17 09:53 36.079265 -115.145380 323 2188ft 0kts
20-Sep-17 09:54 36.079267 -115.145382 323 2188ft 0kts
20-Sep-17 09:55 36.079270 -115.145385 323 2188ft 0kts
20-Sep-17 09:56 36.079272 -115.145387 323 2188ft 0kts
20-Sep-17 09:57 36.079454 -115.144856 174 2188ft 11kts
20-Sep-17 09:58 36.077478 -115.142811 89 2188ft 16kts
20-Sep-17 09:59 36.077514 -115.136568 90 2188ft 15kts
20-Sep-17 10:00 36.077540 -115.128494 89 2188ft 17kts
20-Sep-17 10:01 36.077517 -115.122381 88 2188ft 14kts
20-Sep-17 10:02 36.077112 -115.121330 173 2188ft 0kts
20-Sep-17 10:03 36.076239 -115.138887 269 2201ft 171kts
20-Sep-17 10:04 36.076341 -115.216261 270 3883ft 244kts
20-Sep-17 10:05 36.037094 -115.285565 213 5539ft 265kts
20-Sep-17 10:06 35.971756 -115.325185 188 7170ft 265kts
20-Sep-17 10:07 35.896870 -115.320593 173 7988ft 274kts
20-Sep-17 10:08 35.838820 -115.272667 110 9143ft 288kts
20-Sep-17 10:09 35.828107 -115.172017 97 10807ft 318kts
20-Sep-17 10:10 35.825039 -115.058872 90 11593ft 337kts
20-Sep-17 10:11 35.832227 -114.940521 87 13207ft 351kts
20-Sep-17 10:12 35.841049 -114.818634 86 14811ft 362kts
20-Sep-17 10:13 35.850416 -114.693317 86 16413ft 373kts
20-Sep-17 10:14 35.832154 -114.571515 119 18029ft 374kts
20-Sep-17 10:15 35.775753 -114.459412 126 19652ft 398kts
20-Sep-17 10:16 35.713660 -114.342668 126 21261ft 417kts
20-Sep-17 10:17 35.649208 -114.221493 126 22865ft 430kts
20-Sep-17 10:18 35.582875 -114.096845 126 24469ft 440kts
20-Sep-17 10:19 35.513415 -113.966883 126 24958ft 472kts
20-Sep-17 10:20 35.440227 -113.830833 126 24985ft 482kts
20-Sep-17 10:21 35.365971 -113.693045 126 24981ft 484kts
20-Sep-17 10:22 35.291953 -113.555907 126 24971ft 485kts
20-Sep-17 10:23 35.217323 -113.417846 126 24968ft 485kts
20-Sep-17 10:24 35.143111 -113.280771 126 24956ft 485kts
20-Sep-17 10:25 35.068333 -113.142921 126 24945ft 485kts
20-Sep-17 10:26 34.993599 -113.005455 126 24946ft 486kts
20-Sep-17 10:27 34.918895 -112.868323 126 24935ft 486kts
20-Sep-17 10:28 34.844106 -112.731313 126 24936ft 486kts
20-Sep-17 10:29 34.767339 -112.596318 128 24955ft 485kts
20-Sep-17 10:30 34.689715 -112.473788 137 23824ft 419kts
20-Sep-17 10:31 34.630539 -112.408415 144 22694ft 395kts
20-Sep-17 10:32 34.546374 -112.326510 145 21105ft 382kts
20-Sep-17 10:33 34.462937 -112.248773 153 19513ft 370kts
20-Sep-17 10:34 34.370628 -112.210026 170 17925ft 335kts
20-Sep-17 10:35 34.281967 -112.186994 172 16335ft 319kts
20-Sep-17 10:36 34.196549 -112.165428 171 14751ft 310kts
20-Sep-17 10:37 34.113390 -112.144953 176 13165ft 299kts
20-Sep-17 10:38 34.031656 -112.143461 185 11572ft 288kts
20-Sep-17 10:39 33.953272 -112.151656 188 9989ft 279kts
20-Sep-17 10:40 33.878298 -112.163801 190 8398ft 263kts
20-Sep-17 10:41 33.809861 -112.177809 191 7876ft 240kts
20-Sep-17 10:42 33.742390 -112.192207 191 7047ft 253kts
20-Sep-17 10:43 33.677419 -112.205866 191 6405ft 233kts
20-Sep-17 10:44 33.615201 -112.219008 191 6005ft 219kts
20-Sep-17 10:45 33.551442 -112.232661 191 4651ft 240kts
20-Sep-17 10:46 33.487975 -112.246258 191 4024ft 214kts
20-Sep-17 10:47 33.441245 -112.213658 114 3194ft 235kts
20-Sep-17 10:48 33.441694 -112.144132 90 3023ft 184kts
20-Sep-17 10:49 33.440885 -112.085990 92 2115ft 161kts
20-Sep-17 10:50 33.440736 -112.038035 90 1343ft 135kts
20-Sep-17 10:51 33.440740 -112.013890 120 1142ft 15kts
20-Sep-17 10:52 33.440151 -112.013725 205 1142ft 3kts
20-Sep-17 10:53 33.439742 -112.010757 88 1142ft 18kts
20-Sep-17 10:54 33.439749 -112.005226 90 1142ft 6kts
20-Sep-17 10:55 33.438125 -112.002565 118 1142ft 8kts
20-Sep-17 10:56 33.438083 -112.002473 118 1142ft 0kts
20-Sep-17 10:57 33.438083 -112.002473 118 1142ft 0kts
20-Sep-17 10:58 33.438083 -112.002473 118 1142ft 0kts
20-Sep-17 10:59 33.438083 -112.002473 118 1142ft 0kts
20-Sep-17 11:00 33.438083 -112.002473 118 1142ft 0kts

Navigation Log

Ident Type
Flight plan parsing failed, navigation log unavailable